Time;durP1;ratioP1;P1;durP2;ratioP2;P2;SDS_P1;SDS_P2;PMS_P1;PMS_P2;Temp;Humidity;BMP_temperature;BMP_pressure;BME280_temperature;BME280_humidity;BME280_pressure;Samples;Min_cycle;Max_cycle;Signal;HPM_P1;HPM_P2
2022/05/31 00:01:42;;;;;;;2.03;1.93;;;13.60;99.90;;;;;;5004258;28;20184;-71
2022/05/31 00:04:08;;;;;;;2.90;2.37;;;13.50;99.90;;;;;;5003775;28;20179;-69
2022/05/31 00:06:43;;;;;;;2.30;2.10;;;13.60;99.90;;;;;;5004170;28;20949;-71
2022/05/31 00:09:09;;;;;;;2.60;2.17;;;13.50;99.90;;;;;;5004113;28;20543;-70
2022/05/31 00:11:36;;;;;;;2.40;2.20;;;13.50;99.90;;;;;;5003705;28;20417;-71
2022/05/31 00:14:03;;;;;;;3.17;2.40;;;13.50;99.90;;;;;;5003493;28;20172;-70
2022/05/31 00:16:28;;;;;;;3.27;2.50;;;13.50;99.90;;;;;;5003706;28;20417;-70
2022/05/31 00:18:54;;;;;;;2.43;2.10;;;13.40;99.90;;;;;;5004112;28;20770;-71
2022/05/31 00:21:20;;;;;;;3.00;2.10;;;13.40;99.90;;;;;;5003684;28;20194;-71
2022/05/31 00:23:46;;;;;;;3.03;2.43;;;13.40;99.90;;;;;;5003969;28;20176;-72
2022/05/31 00:26:12;;;;;;;2.07;1.83;;;13.30;99.90;;;;;;5003783;28;20455;-71
2022/05/31 00:28:37;;;;;;;3.90;2.30;;;13.20;99.90;;;;;;5003393;28;20180;-71
2022/05/31 00:31:03;;;;;;;2.57;2.37;;;13.10;99.90;;;;;;5004116;28;20227;-71
2022/05/31 00:33:30;;;;;;;2.30;2.10;;;13.10;99.90;;;;;;5004284;28;20682;-71
2022/05/31 00:35:55;;;;;;;2.47;2.27;;;13.00;99.90;;;;;;5004192;28;20210;-71
2022/05/31 00:38:22;;;;;;;3.50;2.40;;;13.00;99.90;;;;;;5003810;28;20500;-71
2022/05/31 00:40:48;;;;;;;3.80;2.50;;;12.80;99.90;;;;;;5003794;28;20202;-72
2022/05/31 00:43:20;;;;;;;3.10;2.60;;;12.80;99.90;;;;;;5002123;28;20499;-71
2022/05/31 00:45:48;;;;;;;3.13;2.57;;;12.80;99.90;;;;;;5003577;28;20432;-72
2022/05/31 00:48:19;;;;;;;2.67;2.40;;;12.80;99.90;;;;;;5005323;28;20408;-70
2022/05/31 00:50:50;;;;;;;2.33;2.13;;;12.70;99.90;;;;;;5007135;28;20406;-72
2022/05/31 00:53:27;;;;;;;3.90;2.30;;;12.60;99.90;;;;;;5007546;28;20973;-72
2022/05/31 00:55:58;;;;;;;2.50;2.30;;;12.60;99.90;;;;;;5007019;28;20442;-71
2022/05/31 00:58:30;;;;;;;2.63;2.30;;;12.50;99.90;;;;;;5006841;28;20418;-70
2022/05/31 01:00:59;;;;;;;2.90;2.13;;;12.40;99.90;;;;;;5005476;28;20491;-70
2022/05/31 01:03:25;;;;;;;2.83;2.37;;;12.40;99.90;;;;;;5006899;28;20917;-72
2022/05/31 01:05:51;;;;;;;2.40;2.20;;;12.40;99.90;;;;;;5006662;28;20484;-70
2022/05/31 01:08:17;;;;;;;2.90;2.30;;;12.40;99.90;;;;;;5006846;28;20422;-70
2022/05/31 01:10:43;;;;;;;2.70;2.50;;;12.30;99.90;;;;;;5005931;28;20446;-71
2022/05/31 01:13:14;;;;;;;2.60;2.27;;;12.20;99.90;;;;;;5006291;28;20184;-71
2022/05/31 01:15:42;;;;;;;3.13;2.40;;;12.20;99.90;;;;;;5006417;28;20476;-71
2022/05/31 01:18:08;;;;;;;3.13;2.67;;;12.20;99.90;;;;;;5006509;28;20470;-71
2022/05/31 01:20:33;;;;;;;2.10;2.00;;;12.20;99.90;;;;;;5006523;28;20451;-71
2022/05/31 01:23:15;;;;;;;3.00;2.63;;;12.10;99.90;;;;;;5005023;28;20191;-68
2022/05/31 01:25:58;;;;;;;6.03;2.40;;;12.00;99.90;;;;;;5006207;28;20219;-69
2022/05/31 01:28:36;;;;;;;3.13;2.77;;;12.00;99.90;;;;;;5006232;28;20451;-70
2022/05/31 01:31:25;;;;;;;2.60;1.90;;;12.00;99.90;;;;;;5006576;28;20787;-71
2022/05/31 01:33:54;;;;;;;3.50;2.40;;;11.90;99.90;;;;;;5006222;28;20907;-72
2022/05/31 01:36:30;;;;;;;3.47;2.63;;;11.90;99.90;;;;;;5006233;28;20460;-71
2022/05/31 01:39:07;;;;;;;2.23;2.03;;;11.90;99.90;;;;;;5006269;28;20419;-71
2022/05/31 01:42:01;;;;;;;3.10;2.70;;;11.90;99.90;;;;;;5006007;28;20474;-71
2022/05/31 01:44:31;;;;;;;2.97;2.67;;;11.90;99.90;;;;;;5005591;28;20425;-71
2022/05/31 01:46:59;;;;;;;2.00;1.90;;;11.80;99.90;;;;;;5006091;28;20454;-71
2022/05/31 01:49:30;;;;;;;2.50;2.30;;;11.90;99.90;;;;;;5005804;28;20442;-71
2022/05/31 01:51:58;;;;;;;2.73;2.53;;;11.90;99.90;;;;;;5005795;28;20400;-71
2022/05/31 01:54:24;;;;;;;4.57;2.90;;;11.90;99.90;;;;;;5005972;28;20459;-72
2022/05/31 01:56:57;;;;;;;3.27;2.97;;;12.00;99.90;;;;;;5005799;28;20415;-68
2022/05/31 01:59:25;;;;;;;2.93;2.60;;;12.00;99.90;;;;;;5004751;28;20427;-72
2022/05/31 02:01:52;;;;;;;4.17;2.87;;;12.00;99.90;;;;;;5004454;28;20414;-70
2022/05/31 02:04:18;;;;;;;2.53;2.33;;;12.10;99.90;;;;;;5005357;28;20421;-70
2022/05/31 02:06:45;;;;;;;3.43;2.90;;;12.10;99.90;;;;;;5005767;28;20418;-70
2022/05/31 02:09:14;;;;;;;2.83;2.40;;;12.10;99.90;;;;;;5005592;28;20419;-70
2022/05/31 02:11:40;;;;;;;2.77;2.37;;;12.00;99.90;;;;;;5005417;28;20468;-72
2022/05/31 02:14:06;;;;;;;3.57;2.77;;;11.80;99.90;;;;;;5003717;28;20427;-70
2022/05/31 02:16:32;;;;;;;3.10;2.80;;;11.80;99.90;;;;;;5005439;28;20465;-70
2022/05/31 02:21:43;;;;;;;2.77;2.57;;;11.90;99.90;;;;;;5005488;28;20481;-70
2022/05/31 02:24:13;;;;;;;3.33;2.07;;;11.90;99.90;;;;;;5004922;28;20932;-71
2022/05/31 02:26:41;;;;;;;2.43;2.23;;;12.10;99.90;;;;;;5005388;28;20238;-71
2022/05/31 02:29:12;;;;;;;3.80;2.43;;;12.00;99.90;;;;;;5004781;28;20433;-70
2022/05/31 02:31:39;;;;;;;2.97;2.70;;;12.00;99.90;;;;;;5005201;28;20934;-71
2022/05/31 02:34:05;;;;;;;2.97;2.70;;;11.90;99.90;;;;;;5005146;28;20423;-71
2022/05/31 02:36:31;;;;;;;2.80;2.43;;;11.90;99.90;;;;;;5005227;28;20428;-72
2022/05/31 02:38:57;;;;;;;2.60;2.40;;;12.00;99.90;;;;;;5003659;28;20415;-72
2022/05/31 02:41:22;;;;;;;2.57;2.37;;;11.90;99.90;;;;;;5005172;28;20256;-70
2022/05/31 02:43:49;;;;;;;4.33;2.87;;;11.90;99.90;;;;;;5004233;28;20196;-70
2022/05/31 02:46:15;;;;;;;2.67;2.30;;;12.00;99.90;;;;;;5004897;28;20197;-70
2022/05/31 02:48:40;;;;;;;3.10;2.83;;;11.90;99.90;;;;;;5004861;28;20415;-70
2022/05/31 02:51:06;;;;;;;2.93;2.63;;;11.90;99.90;;;;;;5003530;28;20433;-71
2022/05/31 02:53:32;;;;;;;2.83;2.63;;;11.90;99.90;;;;;;5004784;28;20192;-70
2022/05/31 02:55:58;;;;;;;3.03;2.37;;;11.90;99.90;;;;;;5004665;28;20275;-71
2022/05/31 02:58:25;;;;;;;3.10;2.47;;;11.80;99.90;;;;;;5004816;28;20184;-70
2022/05/31 03:00:51;;;;;;;2.63;2.43;;;11.80;99.90;;;;;;5004489;28;20959;-70
2022/05/31 03:03:16;;;;;;;5.33;2.33;;;11.80;99.90;;;;;;5004561;28;20418;-70
2022/05/31 03:05:42;;;;;;;2.67;2.47;;;11.80;99.90;;;;;;5004253;28;20196;-71
2022/05/31 03:08:07;;;;;;;3.40;2.83;;;11.70;99.90;;;;;;5004851;28;20176;-71
2022/05/31 03:10:37;;;;;;;3.10;2.90;;;11.70;99.90;;;;;;5004206;28;20176;-70
2022/05/31 03:13:03;;;;;;;4.07;2.87;;;11.70;99.90;;;;;;5004170;28;20179;-71
2022/05/31 03:15:32;;;;;;;4.43;2.73;;;11.60;99.90;;;;;;5004488;28;20516;-71
2022/05/31 03:18:06;;;;;;;3.47;3.17;;;11.50;99.90;;;;;;5003350;28;20410;-71
2022/05/31 03:20:47;;;;;;;3.60;3.30;;;11.30;99.90;;;;;;5004571;28;20446;-70
2022/05/31 03:23:29;;;;;;;3.10;2.77;;;11.20;99.90;;;;;;5004265;28;20465;-71
2022/05/31 03:26:00;;;;;;;2.80;2.37;;;11.20;99.90;;;;;;5004307;28;20501;-69
2022/05/31 03:28:26;;;;;;;2.50;2.30;;;11.30;99.90;;;;;;5004194;28;20403;-71
2022/05/31 03:30:52;;;;;;;4.40;2.70;;;11.30;99.90;;;;;;5002795;28;20498;-71
2022/05/31 03:33:18;;;;;;;2.90;2.70;;;11.30;99.90;;;;;;5004452;28;20425;-71
2022/05/31 03:35:44;;;;;;;2.87;2.50;;;11.40;99.90;;;;;;5004137;28;20196;-71
2022/05/31 03:38:10;;;;;;;3.03;2.77;;;11.40;99.90;;;;;;5004180;28;20179;-70
2022/05/31 03:43:19;;;;;;;2.97;2.77;;;11.40;99.90;;;;;;5004134;28;20182;-70
2022/05/31 03:45:45;;;;;;;3.67;2.40;;;11.40;99.90;;;;;;5004186;28;20947;-70
2022/05/31 03:48:12;;;;;;;3.67;2.90;;;11.40;99.90;;;;;;5003926;28;20183;-70
2022/05/31 03:50:38;;;;;;;2.90;2.70;;;11.50;99.90;;;;;;5004202;28;20288;-70
2022/05/31 03:53:07;;;;;;;2.93;2.60;;;11.50;99.90;;;;;;5003922;28;20496;-72
2022/05/31 03:55:40;;;;;;;2.63;2.43;;;11.60;99.90;;;;;;5004008;28;20948;-72
2022/05/31 03:58:07;;;;;;;3.20;2.83;;;11.70;99.90;;;;;;5003811;28;20461;-72
2022/05/31 04:00:33;;;;;;;3.00;2.70;;;11.90;99.90;;;;;;5003872;28;20627;-71
2022/05/31 04:02:59;;;;;;;3.10;2.50;;;12.00;99.90;;;;;;5003190;28;20407;-72
2022/05/31 04:05:24;;;;;;;2.87;2.67;;;12.00;99.90;;;;;;5002388;28;20434;-72
2022/05/31 04:07:55;;;;;;;3.50;2.57;;;12.10;99.90;;;;;;5004118;28;20888;-71
2022/05/31 04:10:21;;;;;;;3.70;2.67;;;12.10;99.90;;;;;;5002905;28;20414;-72
2022/05/31 04:12:47;;;;;;;2.83;2.63;;;12.10;99.90;;;;;;5003696;28;20423;-71
2022/05/31 04:15:14;;;;;;;3.97;2.57;;;12.10;99.90;;;;;;5002372;28;20923;-71
2022/05/31 04:17:40;;;;;;;3.13;2.57;;;12.00;99.90;;;;;;5003822;28;20415;-72
2022/05/31 04:20:06;;;;;;;3.20;2.60;;;12.00;99.90;;;;;;5003799;28;20543;-72
2022/05/31 04:22:32;;;;;;;2.83;2.57;;;11.90;99.90;;;;;;5004805;28;20439;-72
2022/05/31 04:25:01;;;;;;;2.97;2.73;;;11.90;99.90;;;;;;5006451;28;20496;-70
2022/05/31 04:27:28;;;;;;;4.13;2.60;;;11.90;99.90;;;;;;5007601;28;20411;-71
2022/05/31 04:29:54;;;;;;;5.37;2.60;;;11.90;99.90;;;;;;5007591;28;20423;-70
2022/05/31 04:32:19;;;;;;;3.67;2.73;;;11.90;99.90;;;;;;5006486;28;20852;-70
2022/05/31 04:34:45;;;;;;;2.77;2.57;;;12.00;99.90;;;;;;5007359;28;20433;-70
2022/05/31 04:37:12;;;;;;;3.13;2.37;;;12.10;99.90;;;;;;5007708;28;20189;-70
2022/05/31 04:39:38;;;;;;;5.30;3.70;;;12.00;99.90;;;;;;5007243;28;20810;-71
2022/05/31 04:42:04;;;;;;;5.20;3.63;;;12.00;99.90;;;;;;5006060;28;20462;-70
2022/05/31 04:44:29;;;;;;;5.30;3.80;;;11.80;99.90;;;;;;5006360;28;20281;-70
2022/05/31 04:46:55;;;;;;;5.13;4.17;;;11.70;99.90;;;;;;5007276;28;20184;-71
2022/05/31 04:49:21;;;;;;;5.17;3.20;;;11.80;99.90;;;;;;5039710;22;21138;-72
2022/05/31 04:51:47;;;;;;;4.00;3.60;;;11.80;99.90;;;;;;5011545;28;20246;-71
2022/05/31 04:54:13;;;;;;;3.40;3.10;;;11.90;99.90;;;;;;5011106;28;20411;-73
2022/05/31 04:56:39;;;;;;;3.47;2.90;;;12.10;99.90;;;;;;5009952;28;20425;-71
2022/05/31 04:59:05;;;;;;;4.60;3.20;;;12.20;99.90;;;;;;5008147;28;20408;-70
2022/05/31 05:01:34;;;;;;;5.33;3.33;;;12.20;99.90;;;;;;5006525;28;20217;-70
2022/05/31 05:03:59;;;;;;;3.60;3.20;;;12.20;99.90;;;;;;5007515;28;20411;-72
2022/05/31 05:06:25;;;;;;;5.13;3.90;;;12.30;99.90;;;;;;5007829;28;20412;-71
2022/05/31 05:08:51;;;;;;;3.80;3.40;;;12.40;99.90;;;;;;5008469;28;20202;-71
2022/05/31 05:11:21;;;;;;;3.50;2.80;;;12.50;99.90;;;;;;5007810;28;20228;-72
2022/05/31 05:13:47;;;;;;;4.10;2.93;;;12.60;99.90;;;;;;5006614;28;20181;-72
2022/05/31 05:16:15;;;;;;;3.60;3.30;;;12.70;99.90;;;;;;5007737;28;20415;-73
2022/05/31 05:18:41;;;;;;;3.60;3.30;;;12.80;99.90;;;;;;5007205;28;20175;-71
2022/05/31 05:21:10;;;;;;;4.13;2.90;;;13.00;99.90;;;;;;5008751;28;20461;-72
2022/05/31 05:23:36;;;;;;;5.37;3.50;;;13.10;99.90;;;;;;5006278;28;20423;-71
2022/05/31 05:26:02;;;;;;;4.33;3.63;;;13.20;99.90;;;;;;5008498;28;20954;-71
2022/05/31 05:31:27;;;;;;;3.77;3.27;;;13.50;99.90;;;;;;5008000;28;20211;-72
2022/05/31 05:33:55;;;;;;;4.07;3.70;;;13.60;99.90;;;;;;5009912;28;20407;-70
2022/05/31 05:36:21;;;;;;;3.77;3.30;;;13.70;99.90;;;;;;5010855;28;20421;-70
2022/05/31 05:38:48;;;;;;;5.10;3.90;;;13.80;99.90;;;;;;5011289;28;20409;-73
2022/05/31 05:41:14;;;;;;;4.70;4.20;;;13.90;99.90;;;;;;5009687;28;20457;-71
2022/05/31 05:43:40;;;;;;;5.07;3.70;;;14.00;99.90;;;;;;5009313;28;20517;-71
2022/05/31 05:46:13;;;;;;;3.97;3.40;;;14.10;99.90;;;;;;5009085;28;20424;-72
2022/05/31 05:48:39;;;;;;;5.50;3.10;;;14.40;99.90;;;;;;5007939;28;20183;-72
2022/05/31 05:51:21;;;;;;;4.07;3.67;;;14.60;99.90;;;;;;5008906;28;20454;-72
2022/05/31 05:53:47;;;;;;;3.87;3.50;;;14.70;99.90;;;;;;5008987;28;20478;-72
2022/05/31 05:56:14;;;;;;;4.07;3.40;;;14.80;99.90;;;;;;5007610;28;20417;-71
2022/05/31 05:58:41;;;;;;;4.87;3.50;;;14.90;99.90;;;;;;5008024;28;20424;-70
2022/05/31 06:01:29;;;;;;;3.50;3.20;;;14.90;99.90;;;;;;5008151;28;20456;-72
2022/05/31 06:04:16;;;;;;;4.50;3.80;;;15.00;99.90;;;;;;5008228;28;21083;-73
2022/05/31 06:06:43;;;;;;;3.83;2.90;;;15.20;99.90;;;;;;5007928;28;20416;-72
2022/05/31 06:09:20;;;;;;;4.70;3.60;;;15.40;99.90;;;;;;5007420;28;20917;-72
2022/05/31 06:12:05;;;;;;;5.30;3.37;;;15.60;99.90;;;;;;5008194;28;20494;-71
2022/05/31 06:14:38;;;;;;;4.30;3.00;;;16.00;99.90;;;;;;5007385;28;20443;-70
2022/05/31 06:17:10;;;;;;;4.13;3.73;;;16.10;99.90;;;;;;5006287;28;20451;-71
2022/05/31 06:19:37;;;;;;;4.67;3.53;;;16.00;99.90;;;;;;5007263;28;21114;-72
2022/05/31 06:22:05;;;;;;;7.47;3.53;;;15.90;99.90;;;;;;5006218;28;20424;-71
2022/05/31 06:24:32;;;;;;;3.43;3.13;;;16.00;99.90;;;;;;5006898;28;20419;-71
2022/05/31 06:26:58;;;;;;;3.40;3.10;;;16.20;99.90;;;;;;5007064;28;20414;-71
2022/05/31 06:29:24;;;;;;;5.37;3.60;;;16.40;99.90;;;;;;5008100;28;20483;-73
2022/05/31 06:31:49;;;;;;;8.73;3.50;;;16.50;99.90;;;;;;5007920;28;20293;-73
2022/05/31 06:34:18;;;;;;;3.60;3.00;;;16.50;99.80;;;;;;5007617;28;20245;-71
2022/05/31 06:36:43;;;;;;;4.10;3.13;;;16.50;99.70;;;;;;5007220;28;20177;-70
2022/05/31 06:39:09;;;;;;;4.17;3.27;;;16.60;99.90;;;;;;5007252;28;20997;-70
2022/05/31 06:41:36;;;;;;;3.47;3.00;;;16.80;99.90;;;;;;5008066;28;20211;-72
2022/05/31 06:44:02;;;;;;;3.80;3.20;;;17.00;99.90;;;;;;5007060;28;20668;-71
2022/05/31 06:46:29;;;;;;;3.67;3.37;;;17.10;99.00;;;;;;5006050;28;20428;-72
2022/05/31 06:48:55;;;;;;;3.87;3.00;;;17.40;98.20;;;;;;5006517;28;20479;-71
2022/05/31 06:57:01;;;;;;;3.40;2.60;;;17.70;97.20;;;;;;5006776;28;20499;-71
2022/05/31 06:59:27;;;;;;;4.77;3.40;;;17.70;97.40;;;;;;5007665;28;20566;-70
2022/05/31 07:01:53;;;;;;;3.00;2.70;;;17.80;97.90;;;;;;5007128;28;20549;-71
2022/05/31 07:04:19;;;;;;;3.20;2.40;;;17.80;97.40;;;;;;5008561;28;20477;-73
2022/05/31 07:06:45;;;;;;;2.63;2.30;;;17.50;97.60;;;;;;5009708;28;20652;-71
2022/05/31 07:09:12;;;;;;;4.40;2.47;;;17.40;98.40;;;;;;5010432;28;20425;-71
2022/05/31 07:11:38;;;;;;;2.43;2.23;;;17.40;98.50;;;;;;5006208;28;20660;-72
2022/05/31 07:14:04;;;;;;;4.37;2.43;;;17.30;97.80;;;;;;5007266;28;20422;-71
2022/05/31 07:16:30;;;;;;;2.20;2.00;;;17.20;98.50;;;;;;5005954;28;21374;-71
2022/05/31 07:18:56;;;;;;;4.03;2.43;;;17.20;97.90;;;;;;5006257;28;20184;-71
2022/05/31 07:21:22;;;;;;;3.90;2.80;;;17.30;98.20;;;;;;5005146;28;20199;-70
2022/05/31 07:23:47;;;;;;;2.17;1.73;;;17.30;98.60;;;;;;5005491;28;20434;-71
2022/05/31 07:26:13;;;;;;;7.53;2.80;;;17.50;98.70;;;;;;5005213;28;20227;-71
2022/05/31 07:28:39;;;;;;;2.20;2.00;;;17.90;98.70;;;;;;5006637;28;20180;-70
2022/05/31 07:31:05;;;;;;;2.40;1.53;;;18.20;97.40;;;;;;5006780;28;20207;-70
2022/05/31 07:33:31;;;;;;;3.90;3.00;;;18.00;97.60;;;;;;5005558;28;20418;-71
2022/05/31 07:35:57;;;;;;;8.27;5.40;;;18.40;97.80;;;;;;5006088;28;20425;-72
2022/05/31 07:38:23;;;;;;;10.60;6.17;;;18.50;97.30;;;;;;5005919;28;20436;-70
2022/05/31 07:40:49;;;;;;;6.50;4.90;;;18.30;97.60;;;;;;5006220;28;20454;-71
2022/05/31 07:43:16;;;;;;;3.90;2.20;;;18.20;97.80;;;;;;5006315;28;20961;-70
2022/05/31 07:45:41;;;;;;;11.47;6.20;;;18.40;97.30;;;;;;5006136;28;20415;-70
2022/05/31 07:48:07;;;;;;;6.60;4.70;;;18.50;97.50;;;;;;5005852;28;20414;-70
2022/05/31 07:50:33;;;;;;;6.77;5.07;;;18.40;97.70;;;;;;5005493;28;20255;-72
2022/05/31 07:52:59;;;;;;;5.73;3.97;;;18.20;98.10;;;;;;5005070;28;20462;-71
2022/05/31 07:55:27;;;;;;;6.93;4.50;;;18.20;97.80;;;;;;5006213;28;20180;-71
2022/05/31 08:00:37;;;;;;;3.27;2.70;;;19.00;97.40;;;;;;5009387;28;20465;-70
2022/05/31 08:03:02;;;;;;;3.27;2.40;;;19.10;95.80;;;;;;5011816;28;20423;-72
2022/05/31 08:05:30;;;;;;;4.03;1.97;;;19.10;95.50;;;;;;5011221;28;20176;-72
2022/05/31 08:07:55;;;;;;;3.50;2.00;;;19.00;96.90;;;;;;5012180;28;20172;-71
2022/05/31 08:10:21;;;;;;;4.57;2.23;;;19.00;95.80;;;;;;5015708;28;20498;-71
2022/05/31 08:12:47;;;;;;;3.70;2.27;;;19.50;96.20;;;;;;5016449;28;20198;-71
2022/05/31 08:15:13;;;;;;;3.33;1.87;;;19.80;94.90;;;;;;5012839;28;20433;-70
2022/05/31 08:17:39;;;;;;;3.03;1.80;;;19.80;94.80;;;;;;5017069;28;20454;-71
2022/05/31 08:20:06;;;;;;;3.07;2.27;;;19.90;94.90;;;;;;5016197;28;20257;-71
2022/05/31 08:22:33;;;;;;;3.13;2.30;;;19.80;95.20;;;;;;5015562;28;20176;-71
2022/05/31 08:24:59;;;;;;;3.60;2.13;;;19.70;95.00;;;;;;5012386;28;20402;-71
2022/05/31 08:27:24;;;;;;;2.63;2.00;;;19.40;95.70;;;;;;5010339;28;20514;-72
2022/05/31 08:29:50;;;;;;;3.53;1.70;;;19.70;97.00;;;;;;5011343;28;20438;-71
2022/05/31 08:32:16;;;;;;;2.73;1.80;;;19.90;95.60;;;;;;5011530;28;20458;-71
2022/05/31 08:34:42;;;;;;;3.93;1.77;;;19.90;94.20;;;;;;5011250;28;20591;-71
2022/05/31 08:37:07;;;;;;;2.03;1.80;;;20.00;94.80;;;;;;5010948;28;20652;-71
2022/05/31 08:39:33;;;;;;;2.77;2.17;;;20.20;94.80;;;;;;5011145;28;20488;-72
2022/05/31 08:42:08;;;;;;;2.47;1.73;;;20.10;93.90;;;;;;5009223;28;20218;-71
2022/05/31 08:44:34;;;;;;;1.67;1.57;;;20.00;92.90;;;;;;5008616;28;20176;-72
2022/05/31 08:47:02;;;;;;;1.93;1.73;;;19.80;93.20;;;;;;5010255;28;20915;-72
2022/05/31 08:52:39;;;;;;;1.47;1.37;;;20.00;93.10;;;;;;5008957;28;20952;-72
2022/05/31 08:58:10;;;;;;;2.47;2.20;;;20.60;93.10;;;;;;5009624;28;20985;-71
2022/05/31 09:00:42;;;;;;;2.33;2.00;;;20.90;92.40;;;;;;5009220;28;21013;-71
2022/05/31 09:03:07;;;;;;;2.73;1.53;;;21.40;91.70;;;;;;5008539;28;20411;-73
2022/05/31 09:05:43;;;;;;;2.10;1.60;;;21.40;91.40;;;;;;5008262;28;20413;-71
2022/05/31 09:08:22;;;;;;;3.03;1.83;;;21.70;90.90;;;;;;5009171;28;20178;-72
2022/05/31 09:10:51;;;;;;;1.63;1.53;;;22.10;90.80;;;;;;5008895;28;20431;-72
2022/05/31 09:13:21;;;;;;;3.40;1.60;;;22.30;90.00;;;;;;5008726;28;20792;-73
2022/05/31 09:15:51;;;;;;;6.33;2.10;;;22.10;89.80;;;;;;5008924;28;20411;-72
2022/05/31 09:18:26;;;;;;;1.93;1.70;;;22.00;90.50;;;;;;5008464;28;20761;-70
2022/05/31 09:20:58;;;;;;;1.93;1.47;;;22.10;89.90;;;;;;5009133;28;20461;-73
2022/05/31 09:23:31;;;;;;;2.43;1.90;;;22.00;91.50;;;;;;5007925;28;20443;-70
2022/05/31 09:26:40;;;;;;;3.73;1.80;;;22.00;90.60;;;;;;5008178;28;20407;-73
2022/05/31 09:29:14;;;;;;;2.20;2.00;;;22.20;91.10;;;;;;4994647;28;20958;-72
2022/05/31 09:31:42;;;;;;;2.07;1.77;;;22.20;90.50;;;;;;5007655;28;20477;-70
2022/05/31 09:34:22;;;;;;;3.93;2.10;;;22.20;89.30;;;;;;5007477;28;20426;-71
2022/05/31 09:36:59;;;;;;;3.13;1.77;;;22.20;89.60;;;;;;5007031;28;20493;-71
2022/05/31 09:39:39;;;;;;;2.07;1.87;;;22.10;88.90;;;;;;5008816;28;20947;-72
2022/05/31 09:42:12;;;;;;;2.20;1.67;;;22.10;90.50;;;;;;5008547;28;20426;-73
2022/05/31 09:44:43;;;;;;;2.63;1.90;;;22.30;89.20;;;;;;5007279;28;20437;-70
2022/05/31 09:47:18;;;;;;;3.00;1.83;;;22.60;87.40;;;;;;5007109;28;20418;-71
2022/05/31 09:49:47;;;;;;;1.70;1.60;;;23.10;87.00;;;;;;5007033;28;20450;-73
2022/05/31 09:52:22;;;;;;;2.30;1.60;;;23.10;82.60;;;;;;5008171;28;20460;-72
2022/05/31 09:58:06;;;;;;;3.20;1.87;;;22.70;80.70;;;;;;5007845;28;20410;-71
2022/05/31 10:00:31;;;;;;;1.80;1.70;;;22.90;82.10;;;;;;5006861;28;20469;-72
2022/05/31 10:03:10;;;;;;;2.80;1.73;;;23.20;79.90;;;;;;5008147;28;20434;-73
2022/05/31 10:05:37;;;;;;;2.57;1.77;;;23.40;81.50;;;;;;5006256;28;20187;-73
2022/05/31 10:08:11;;;;;;;2.57;2.37;;;23.40;77.80;;;;;;5007387;28;20509;-71
2022/05/31 10:10:43;;;;;;;3.30;1.60;;;23.10;78.40;;;;;;5006963;28;20441;-72
2022/05/31 10:13:09;;;;;;;4.27;1.90;;;23.60;75.80;;;;;;5007309;28;20946;-72
2022/05/31 10:15:41;;;;;;;2.63;1.60;;;23.80;72.70;;;;;;5006893;28;20414;-71
2022/05/31 10:18:10;;;;;;;2.50;1.80;;;24.10;71.20;;;;;;5006328;28;20411;-71
2022/05/31 10:20:36;;;;;;;2.90;1.93;;;24.20;71.30;;;;;;5005559;28;20466;-71
2022/05/31 10:23:11;;;;;;;2.23;1.40;;;24.40;73.70;;;;;;5007175;28;20415;-71
2022/05/31 10:25:43;;;;;;;2.60;1.70;;;25.00;74.90;;;;;;5006604;28;20407;-72
2022/05/31 10:28:23;;;;;;;2.73;1.90;;;24.80;71.10;;;;;;5006832;28;20418;-72
2022/05/31 10:31:17;;;;;;;2.63;2.20;;;24.10;73.20;;;;;;5006661;28;20454;-72
2022/05/31 10:33:52;;;;;;;2.93;1.70;;;24.00;73.20;;;;;;5006021;28;20431;-71
2022/05/31 10:36:21;;;;;;;3.00;2.10;;;24.40;72.40;;;;;;5007273;28;20403;-71
2022/05/31 10:38:49;;;;;;;3.47;2.63;;;24.20;72.70;;;;;;5008098;28;20787;-72
2022/05/31 10:41:17;;;;;;;5.10;2.20;;;23.90;73.80;;;;;;5007196;28;20469;-72
2022/05/31 10:44:11;;;;;;;6.17;2.70;;;23.70;76.40;;;;;;5005851;28;20425;-72
2022/05/31 10:46:38;;;;;;;4.47;2.40;;;23.40;80.00;;;;;;5007029;28;20489;-72
2022/05/31 10:49:19;;;;;;;2.10;1.90;;;23.40;81.10;;;;;;5006439;28;20457;-71
2022/05/31 10:52:16;;;;;;;2.97;2.10;;;23.40;81.80;;;;;;5006458;28;20422;-72
2022/05/31 10:54:53;;;;;;;2.80;2.60;;;23.20;80.40;;;;;;5006905;28;20937;-72
2022/05/31 10:57:27;;;;;;;3.33;2.33;;;22.80;82.10;;;;;;5006330;28;20414;-71
2022/05/31 11:00:01;;;;;;;3.67;2.60;;;22.90;82.30;;;;;;5004903;28;20466;-72
2022/05/31 11:02:48;;;;;;;3.53;2.50;;;23.20;81.60;;;;;;5006261;28;20421;-72
2022/05/31 11:05:17;;;;;;;4.23;2.93;;;23.50;81.40;;;;;;5004821;28;20415;-71
2022/05/31 11:11:28;;;;;;;3.13;2.30;;;23.60;79.30;;;;;;5006213;28;20419;-72
2022/05/31 11:13:48;;;;;;;4.53;2.80;;;23.40;79.00;;;;;;5006195;28;20449;-72
2022/05/31 11:16:43;;;;;;;3.90;3.00;;;22.90;79.50;;;;;;5006455;28;20506;-72
2022/05/31 11:19:52;;;;;;;3.20;2.90;;;23.00;79.70;;;;;;4998120;28;20437;-71
2022/05/31 11:22:56;;;;;;;3.63;2.60;;;23.20;79.10;;;;;;5005981;28;20434;-70
2022/05/31 11:25:43;;;;;;;5.13;2.57;;;23.70;79.10;;;;;;5005333;28;20419;-72
2022/05/31 11:28:19;;;;;;;8.60;3.00;;;24.70;77.00;;;;;;5005606;28;20411;-72
2022/05/31 11:30:53;;;;;;;5.53;2.80;;;25.80;72.20;;;;;;5007165;28;20435;-72
2022/05/31 11:33:40;;;;;;;3.63;2.33;;;27.00;69.40;;;;;;5011017;28;20413;-71
2022/05/31 11:36:18;;;;;;;4.10;2.10;;;26.70;67.20;;;;;;5010173;28;20418;-72
2022/05/31 11:38:44;;;;;;;4.37;2.17;;;26.20;68.00;;;;;;5011851;28;20878;-71
2022/05/31 11:41:13;;;;;;;2.80;1.80;;;27.40;65.20;;;;;;5011730;28;20489;-71
2022/05/31 11:43:59;;;;;;;4.73;2.40;;;27.40;62.20;;;;;;5010656;28;20266;-72
2022/05/31 11:47:03;;;;;;;9.03;2.30;;;26.30;63.70;;;;;;5009258;28;20538;-72
2022/05/31 11:49:46;;;;;;;3.70;2.10;;;27.10;62.00;;;;;;5007596;28;20573;-71
2022/05/31 11:52:24;;;;;;;1.80;1.70;;;26.80;62.50;;;;;;5008899;28;20426;-71
2022/05/31 11:55:30;;;;;;;2.80;1.87;;;27.30;61.20;;;;;;5007454;28;20410;-71
2022/05/31 11:58:39;;;;;;;2.03;1.83;;;27.30;59.90;;;;;;5004744;28;21085;-72
2022/05/31 12:01:20;;;;;;;2.60;1.60;;;27.20;59.70;;;;;;5006499;28;20498;-71
2022/05/31 12:04:10;;;;;;;6.73;2.27;;;27.20;57.60;;;;;;5005051;28;20419;-72
2022/05/31 12:06:54;;;;;;;3.30;1.53;;;27.30;58.20;;;;;;5006961;28;20834;-72
2022/05/31 12:09:34;;;;;;;6.57;1.70;;;27.50;57.40;;;;;;5006749;28;20425;-71
2022/05/31 12:12:10;;;;;;;3.07;1.70;;;27.50;57.30;;;;;;5005531;28;20493;-70
2022/05/31 12:14:39;;;;;;;2.73;1.67;;;27.40;56.60;;;;;;5005280;28;20477;-71
2022/05/31 12:17:05;;;;;;;3.23;2.00;;;27.60;55.90;;;;;;5006529;28;20506;-72
2022/05/31 12:19:58;;;;;;;3.00;1.83;;;27.40;56.30;;;;;;5005262;28;20535;-71
2022/05/31 12:22:33;;;;;;;3.70;1.47;;;27.60;56.20;;;;;;5004577;28;20418;-70
2022/05/31 12:25:02;;;;;;;2.67;2.00;;;27.20;56.20;;;;;;5005048;28;20455;-70
2022/05/31 12:27:46;;;;;;;1.87;1.67;;;26.70;57.00;;;;;;5005910;28;20477;-70
2022/05/31 12:30:20;;;;;;;4.83;1.70;;;26.10;57.80;;;;;;5004350;28;20478;-72
2022/05/31 12:32:49;;;;;;;3.87;1.83;;;26.30;57.50;;;;;;5003856;28;20828;-69
2022/05/31 12:35:30;;;;;;;4.17;1.77;;;27.00;56.30;;;;;;5005991;28;20435;-71
2022/05/31 12:38:01;;;;;;;2.60;1.80;;;27.30;55.80;;;;;;5005261;28;21082;-73
2022/05/31 12:40:33;;;;;;;2.23;1.80;;;27.00;54.60;;;;;;5004887;28;20963;-71
2022/05/31 12:43:00;;;;;;;3.27;1.63;;;26.50;55.70;;;;;;5004318;28;20417;-71
2022/05/31 12:45:41;;;;;;;3.53;1.50;;;26.90;55.00;;;;;;5008091;28;20452;-70
2022/05/31 12:48:09;;;;;;;3.40;1.73;;;28.10;53.70;;;;;;5008239;28;20406;-72
2022/05/31 12:50:54;;;;;;;5.03;2.70;;;27.90;53.30;;;;;;4994151;22;20540;-70
2022/05/31 12:53:41;;;;;;;1.83;1.50;;;28.20;52.90;;;;;;4968154;28;20474;-71
2022/05/31 12:56:09;;;;;;;2.13;1.40;;;29.20;51.80;;;;;;4963748;28;20520;-71
2022/05/31 12:58:48;;;;;;;2.23;1.50;;;29.90;50.20;;;;;;4967826;28;20419;-69
2022/05/31 13:01:14;;;;;;;2.30;1.43;;;31.10;48.50;;;;;;4967387;28;20484;-70
2022/05/31 13:03:42;;;;;;;1.97;1.50;;;31.90;47.30;;;;;;4967933;28;20447;-71
2022/05/31 13:06:29;;;;;;;2.40;1.60;;;31.50;46.40;;;;;;4967584;28;20181;-71
2022/05/31 13:09:00;;;;;;;4.80;1.70;;;31.90;45.50;;;;;;4967579;28;20423;-70
2022/05/31 13:20:46;;;;;;;5.53;1.90;;;28.70;49.20;;;;;;4925594;29;20471;-69
2022/05/31 13:23:20;;;;;;;3.17;1.80;;;29.10;48.80;;;;;;4910770;29;20847;-71
2022/05/31 13:26:01;;;;;;;2.33;1.40;;;29.30;47.50;;;;;;4953082;28;20426;-70
2022/05/31 13:28:32;;;;;;;2.73;1.97;;;28.60;48.10;;;;;;4967368;28;20543;-70
2022/05/31 13:31:04;;;;;;;2.43;1.80;;;28.60;48.00;;;;;;4967509;28;20441;-71
2022/05/31 13:33:31;;;;;;;4.57;1.90;;;28.10;48.20;;;;;;4967707;28;20397;-71
2022/05/31 13:36:19;;;;;;;1.90;1.60;;;28.40;47.80;;;;;;4967554;28;20933;-70
2022/05/31 13:38:46;;;;;;;2.70;1.70;;;28.10;47.80;;;;;;4967429;28;20404;-70
2022/05/31 13:41:17;;;;;;;1.60;1.50;;;28.00;48.40;;;;;;4966884;28;20532;-69
2022/05/31 13:43:50;;;;;;;2.37;1.70;;;27.50;48.20;;;;;;4966919;28;20516;-69
2022/05/31 13:46:57;;;;;;;2.90;1.70;;;27.10;49.20;;;;;;4966876;28;20601;-70